Andover, Ohio
Current Conditions -  °F | °C
As of 6:53 AM on Friday 31 Oct 2014 (Local Time) from KHZY Reporting Station
Overcast Overcast  
Wind Chill:   Ceiling: 7000
Heat Index:   Visibility: 10mi
Dew Point:   Wind: 5mph
Humidity: 89%   Direction: 190°S
Pressure: 29.95"   Gusts: NA
Location:  41.61°N, 80.57°W
Report Text: KHZY 311053Z AUTO 19004KT 10SM OVC070 05/03 A2995 RMK AO2 SLP148 T00500033
Loading
Personal Weather Stations






























Interactive Weather Map
Tropical Storm Tracking
New forecast layout! Learn more

10-Day Weather Forecast

Advertisements
Track Severe Weather on mobile